sensor_id;sensor_type;location;lat;lon;timestamp;pressure;altitude;pressure_sealevel;temperature;humidity
84445;BME280;74683;48.402;10.596;2023-12-20T00:00:56;96525.53;;;3.86;64.89
84445;BME280;74683;48.402;10.596;2023-12-20T00:03:23;96527.13;;;3.87;64.66
84445;BME280;74683;48.402;10.596;2023-12-20T00:05:50;96505.06;;;3.88;65.47
84445;BME280;74683;48.402;10.596;2023-12-20T00:08:17;96485.53;;;3.86;65.24
84445;BME280;74683;48.402;10.596;2023-12-20T00:10:44;96481.22;;;3.85;64.88
84445;BME280;74683;48.402;10.596;2023-12-20T00:13:10;96481.22;;;3.85;65.14
84445;BME280;74683;48.402;10.596;2023-12-20T00:15:37;96483.41;;;3.83;64.89
84445;BME280;74683;48.402;10.596;2023-12-20T00:18:04;96491.28;;;3.85;64.78
84445;BME280;74683;48.402;10.596;2023-12-20T00:20:31;96483.00;;;3.90;64.25
84445;BME280;74683;48.402;10.596;2023-12-20T00:22:58;96491.06;;;3.95;64.20
84445;BME280;74683;48.402;10.596;2023-12-20T00:25:25;96497.78;;;3.97;64.70
84445;BME280;74683;48.402;10.596;2023-12-20T00:27:51;96512.38;;;4.01;64.54
84445;BME280;74683;48.402;10.596;2023-12-20T00:30:18;96516.59;;;4.08;63.91
84445;BME280;74683;48.402;10.596;2023-12-20T00:32:45;96519.50;;;4.11;64.02
84445;BME280;74683;48.402;10.596;2023-12-20T00:35:16;96500.66;;;4.15;63.68
84445;BME280;74683;48.402;10.596;2023-12-20T00:37:43;96505.16;;;4.19;63.88
84445;BME280;74683;48.402;10.596;2023-12-20T00:40:10;96495.56;;;4.22;64.38
84445;BME280;74683;48.402;10.596;2023-12-20T00:42:37;96498.50;;;4.25;63.96
84445;BME280;74683;48.402;10.596;2023-12-20T00:45:04;96493.66;;;4.22;64.15
84445;BME280;74683;48.402;10.596;2023-12-20T00:47:31;96484.69;;;4.22;64.61
84445;BME280;74683;48.402;10.596;2023-12-20T00:49:58;96476.53;;;4.22;64.78
84445;BME280;74683;48.402;10.596;2023-12-20T00:52:25;96478.75;;;4.20;65.34
84445;BME280;74683;48.402;10.596;2023-12-20T00:54:51;96471.16;;;4.30;65.00
84445;BME280;74683;48.402;10.596;2023-12-20T00:57:18;96473.28;;;4.34;65.25
84445;BME280;74683;48.402;10.596;2023-12-20T00:59:45;96476.50;;;4.36;65.58
84445;BME280;74683;48.402;10.596;2023-12-20T01:02:11;96476.66;;;4.39;65.83
84445;BME280;74683;48.402;10.596;2023-12-20T01:04:38;96469.50;;;4.43;65.67
84445;BME280;74683;48.402;10.596;2023-12-20T01:07:05;96470.59;;;4.42;65.65
84445;BME280;74683;48.402;10.596;2023-12-20T01:09:32;96461.81;;;4.45;66.14
84445;BME280;74683;48.402;10.596;2023-12-20T01:11:58;96461.19;;;4.48;65.58
84445;BME280;74683;48.402;10.596;2023-12-20T01:14:25;96454.47;;;4.46;66.12
84445;BME280;74683;48.402;10.596;2023-12-20T01:16:52;96455.59;;;4.45;66.22
84445;BME280;74683;48.402;10.596;2023-12-20T01:19:18;96454.56;;;4.41;66.67
84445;BME280;74683;48.402;10.596;2023-12-20T01:21:45;96446.88;;;4.34;66.65
84445;BME280;74683;48.402;10.596;2023-12-20T01:24:12;96452.59;;;4.32;66.92
84445;BME280;74683;48.402;10.596;2023-12-20T01:26:38;96444.25;;;4.29;66.60
84445;BME280;74683;48.402;10.596;2023-12-20T01:29:05;96437.69;;;4.30;66.94
84445;BME280;74683;48.402;10.596;2023-12-20T01:31:31;96422.19;;;4.30;66.55
84445;BME280;74683;48.402;10.596;2023-12-20T01:33:58;96414.66;;;4.27;67.31
84445;BME280;74683;48.402;10.596;2023-12-20T01:36:25;96413.34;;;4.25;66.35
84445;BME280;74683;48.402;10.596;2023-12-20T01:38:51;96412.88;;;4.23;66.84
84445;BME280;74683;48.402;10.596;2023-12-20T01:41:18;96417.78;;;4.21;67.26
84445;BME280;74683;48.402;10.596;2023-12-20T01:43:45;96409.94;;;4.19;66.63
84445;BME280;74683;48.402;10.596;2023-12-20T01:46:17;96414.75;;;4.22;66.67
84445;BME280;74683;48.402;10.596;2023-12-20T01:48:45;96397.16;;;4.20;67.33
84445;BME280;74683;48.402;10.596;2023-12-20T01:51:11;96404.81;;;4.18;67.69
84445;BME280;74683;48.402;10.596;2023-12-20T01:53:39;96409.63;;;4.21;67.29
84445;BME280;74683;48.402;10.596;2023-12-20T01:56:06;96393.94;;;4.18;67.72
84445;BME280;74683;48.402;10.596;2023-12-20T01:58:33;96406.72;;;4.17;68.11
84445;BME280;74683;48.402;10.596;2023-12-20T02:01:00;96410.09;;;4.14;68.73
84445;BME280;74683;48.402;10.596;2023-12-20T02:03:27;96416.63;;;4.13;68.47
84445;BME280;74683;48.402;10.596;2023-12-20T02:05:55;96407.66;;;4.13;69.01
84445;BME280;74683;48.402;10.596;2023-12-20T02:08:21;96419.03;;;4.15;69.22
84445;BME280;74683;48.402;10.596;2023-12-20T02:10:48;96416.81;;;4.17;69.21
84445;BME280;74683;48.402;10.596;2023-12-20T02:13:15;96413.78;;;4.18;69.90
84445;BME280;74683;48.402;10.596;2023-12-20T02:15:42;96417.47;;;4.22;69.68
84445;BME280;74683;48.402;10.596;2023-12-20T02:18:10;96414.75;;;4.22;70.13
84445;BME280;74683;48.402;10.596;2023-12-20T02:20:37;96416.06;;;4.25;69.84
84445;BME280;74683;48.402;10.596;2023-12-20T02:23:05;96412.03;;;4.22;70.39
84445;BME280;74683;48.402;10.596;2023-12-20T02:25:32;96407.72;;;4.21;70.63
84445;BME280;74683;48.402;10.596;2023-12-20T02:27:59;96404.50;;;4.19;71.18
84445;BME280;74683;48.402;10.596;2023-12-20T02:30:26;96404.00;;;4.17;71.74
84445;BME280;74683;48.402;10.596;2023-12-20T02:32:53;96404.94;;;4.13;72.28
84445;BME280;74683;48.402;10.596;2023-12-20T02:35:20;96411.63;;;4.07;73.20
84445;BME280;74683;48.402;10.596;2023-12-20T02:37:46;96408.22;;;4.01;75.30
84445;BME280;74683;48.402;10.596;2023-12-20T02:40:13;96416.13;;;3.89;76.28
84445;BME280;74683;48.402;10.596;2023-12-20T02:42:40;96419.09;;;3.79;77.80
84445;BME280;74683;48.402;10.596;2023-12-20T02:45:07;96422.53;;;3.70;79.15
84445;BME280;74683;48.402;10.596;2023-12-20T02:47:34;96425.47;;;3.60;80.68
84445;BME280;74683;48.402;10.596;2023-12-20T02:50:00;96428.41;;;3.50;81.53
84445;BME280;74683;48.402;10.596;2023-12-20T02:52:28;96421.59;;;3.39;82.79
84445;BME280;74683;48.402;10.596;2023-12-20T02:54:55;96422.81;;;3.33;83.43
84445;BME280;74683;48.402;10.596;2023-12-20T02:57:22;96436.81;;;3.26;84.44
84445;BME280;74683;48.402;10.596;2023-12-20T02:59:48;96436.91;;;3.21;85.45
84445;BME280;74683;48.402;10.596;2023-12-20T03:02:15;96431.59;;;3.16;86.04
84445;BME280;74683;48.402;10.596;2023-12-20T03:04:42;96424.66;;;3.10;86.24
84445;BME280;74683;48.402;10.596;2023-12-20T03:07:08;96435.50;;;3.10;86.75
84445;BME280;74683;48.402;10.596;2023-12-20T03:09:35;96436.94;;;3.07;87.35
84445;BME280;74683;48.402;10.596;2023-12-20T03:12:22;96438.63;;;3.03;87.58
84445;BME280;74683;48.402;10.596;2023-12-20T03:14:49;96450.09;;;3.00;88.12
84445;BME280;74683;48.402;10.596;2023-12-20T03:17:16;96450.09;;;3.00;88.11
84445;BME280;74683;48.402;10.596;2023-12-20T03:19:42;96455.84;;;2.99;88.84
84445;BME280;74683;48.402;10.596;2023-12-20T03:22:09;96457.75;;;2.98;88.96
84445;BME280;74683;48.402;10.596;2023-12-20T03:24:36;96452.63;;;2.97;89.30
84445;BME280;74683;48.402;10.596;2023-12-20T03:27:02;96445.84;;;2.94;90.08
84445;BME280;74683;48.402;10.596;2023-12-20T03:29:29;96452.41;;;2.93;90.15
84445;BME280;74683;48.402;10.596;2023-12-20T03:31:55;96441.53;;;2.93;90.51
84445;BME280;74683;48.402;10.596;2023-12-20T03:34:22;96445.66;;;2.91;90.60
84445;BME280;74683;48.402;10.596;2023-12-20T03:36:49;96444.06;;;2.90;90.90
84445;BME280;74683;48.402;10.596;2023-12-20T03:39:16;96442.94;;;2.91;91.05
84445;BME280;74683;48.402;10.596;2023-12-20T03:41:42;96434.81;;;2.91;90.93
84445;BME280;74683;48.402;10.596;2023-12-20T03:44:09;96436.09;;;2.93;90.88
84445;BME280;74683;48.402;10.596;2023-12-20T03:46:35;96442.34;;;2.94;91.32
84445;BME280;74683;48.402;10.596;2023-12-20T03:49:02;96448.38;;;2.91;91.78
84445;BME280;74683;48.402;10.596;2023-12-20T03:51:30;96444.88;;;2.90;92.18
84445;BME280;74683;48.402;10.596;2023-12-20T03:53:57;96459.56;;;2.89;92.57
84445;BME280;74683;48.402;10.596;2023-12-20T03:56:23;96460.66;;;2.88;92.72
84445;BME280;74683;48.402;10.596;2023-12-20T03:58:49;96469.91;;;2.87;93.38
84445;BME280;74683;48.402;10.596;2023-12-20T04:01:16;96455.22;;;2.88;93.24
84445;BME280;74683;48.402;10.596;2023-12-20T04:03:43;96458.25;;;2.86;93.31
84445;BME280;74683;48.402;10.596;2023-12-20T04:06:09;96449.31;;;2.86;93.50
84445;BME280;74683;48.402;10.596;2023-12-20T04:08:36;96444.16;;;2.84;93.64
84445;BME280;74683;48.402;10.596;2023-12-20T04:11:03;96452.28;;;2.84;93.85
84445;BME280;74683;48.402;10.596;2023-12-20T04:13:29;96444.16;;;2.84;93.82
84445;BME280;74683;48.402;10.596;2023-12-20T04:15:56;96452.00;;;2.86;93.77
84445;BME280;74683;48.402;10.596;2023-12-20T04:18:22;96456.63;;;2.85;94.06
84445;BME280;74683;48.402;10.596;2023-12-20T04:20:49;96457.72;;;2.84;94.19
84445;BME280;74683;48.402;10.596;2023-12-20T04:23:17;96456.91;;;2.84;94.23
84445;BME280;74683;48.402;10.596;2023-12-20T04:25:44;96469.38;;;2.85;94.35
84445;BME280;74683;48.402;10.596;2023-12-20T04:28:10;96462.06;;;2.85;94.25
84445;BME280;74683;48.402;10.596;2023-12-20T04:30:37;96468.00;;;2.87;94.41
84445;BME280;74683;48.402;10.596;2023-12-20T04:33:04;96466.88;;;2.88;94.01
84445;BME280;74683;48.402;10.596;2023-12-20T04:35:31;96471.41;;;2.93;94.15
84445;BME280;74683;48.402;10.596;2023-12-20T04:37:57;96474.44;;;2.92;94.28
84445;BME280;74683;48.402;10.596;2023-12-20T04:40:24;96474.91;;;2.94;94.50
84445;BME280;74683;48.402;10.596;2023-12-20T04:42:50;96473.81;;;2.95;94.32
84445;BME280;74683;48.402;10.596;2023-12-20T04:45:17;96472.75;;;2.96;94.59
84445;BME280;74683;48.402;10.596;2023-12-20T04:47:46;96478.16;;;2.96;94.57
84445;BME280;74683;48.402;10.596;2023-12-20T04:50:13;96482.19;;;2.98;94.57
84445;BME280;74683;48.402;10.596;2023-12-20T04:52:42;96481.25;;;3.03;94.95
84445;BME280;74683;48.402;10.596;2023-12-20T04:55:08;96478.56;;;3.03;94.83
84445;BME280;74683;48.402;10.596;2023-12-20T04:57:35;96489.94;;;3.05;94.98
84445;BME280;74683;48.402;10.596;2023-12-20T05:00:02;96484.09;;;3.11;94.87
84445;BME280;74683;48.402;10.596;2023-12-20T05:02:30;96495.75;;;3.12;94.66
84445;BME280;74683;48.402;10.596;2023-12-20T05:04:56;96496.88;;;3.11;94.63
84445;BME280;74683;48.402;10.596;2023-12-20T05:07:23;96488.72;;;3.11;94.87
84445;BME280;74683;48.402;10.596;2023-12-20T05:09:49;96481.69;;;3.10;94.77
84445;BME280;74683;48.402;10.596;2023-12-20T05:12:16;96481.38;;;3.11;94.75
84445;BME280;74683;48.402;10.596;2023-12-20T05:14:43;96482.47;;;3.10;94.74
84445;BME280;74683;48.402;10.596;2023-12-20T05:17:09;96489.84;;;3.10;94.80
84445;BME280;74683;48.402;10.596;2023-12-20T05:19:36;96494.16;;;3.11;95.24
84445;BME280;74683;48.402;10.596;2023-12-20T05:22:03;96494.66;;;3.13;94.52
84445;BME280;74683;48.402;10.596;2023-12-20T05:24:30;96487.63;;;3.12;95.01
84445;BME280;74683;48.402;10.596;2023-12-20T05:26:57;96496.25;;;3.14;94.96
84445;BME280;74683;48.402;10.596;2023-12-20T05:29:23;96488.09;;;3.14;94.53
84445;BME280;74683;48.402;10.596;2023-12-20T05:31:49;96490.81;;;3.14;94.83
84445;BME280;74683;48.402;10.596;2023-12-20T05:34:16;96495.97;;;3.15;94.77
84445;BME280;74683;48.402;10.596;2023-12-20T05:36:43;96489.75;;;3.15;94.81
84445;BME280;74683;48.402;10.596;2023-12-20T05:39:10;96503.03;;;3.16;94.99
84445;BME280;74683;48.402;10.596;2023-12-20T05:41:36;96512.56;;;3.14;94.73
84445;BME280;74683;48.402;10.596;2023-12-20T05:44:03;96520.94;;;3.17;94.63
84445;BME280;74683;48.402;10.596;2023-12-20T05:46:30;96526.34;;;3.17;95.30
84445;BME280;74683;48.402;10.596;2023-12-20T05:48:56;96534.19;;;3.19;94.94
84445;BME280;74683;48.402;10.596;2023-12-20T05:51:23;96530.38;;;3.20;94.92
84445;BME280;74683;48.402;10.596;2023-12-20T05:53:49;96546.97;;;3.19;94.81
84445;BME280;74683;48.402;10.596;2023-12-20T05:56:16;96544.75;;;3.21;94.70
84445;BME280;74683;48.402;10.596;2023-12-20T05:58:43;96561.06;;;3.21;94.97
84445;BME280;74683;48.402;10.596;2023-12-20T06:01:10;96561.56;;;3.23;95.01
84445;BME280;74683;48.402;10.596;2023-12-20T06:03:36;96561.56;;;3.23;94.94
84445;BME280;74683;48.402;10.596;2023-12-20T06:06:06;96563.47;;;3.22;94.91
84445;BME280;74683;48.402;10.596;2023-12-20T06:08:42;96556.94;;;3.23;94.73
84445;BME280;74683;48.402;10.596;2023-12-20T06:11:10;96553.94;;;3.25;94.82
84445;BME280;74683;48.402;10.596;2023-12-20T06:13:37;96548.50;;;3.25;94.97
84445;BME280;74683;48.402;10.596;2023-12-20T06:16:05;96550.38;;;3.24;95.08
84445;BME280;74683;48.402;10.596;2023-12-20T06:18:32;96562.09;;;3.25;95.00
84445;BME280;74683;48.402;10.596;2023-12-20T06:20:59;96564.81;;;3.25;95.00
84445;BME280;74683;48.402;10.596;2023-12-20T06:23:25;96564.81;;;3.25;95.23
84445;BME280;74683;48.402;10.596;2023-12-20T06:25:53;96568.03;;;3.27;94.94
84445;BME280;74683;48.402;10.596;2023-12-20T06:28:20;96577.78;;;3.28;95.24
84445;BME280;74683;48.402;10.596;2023-12-20T06:30:47;96572.03;;;3.29;94.96
84445;BME280;74683;48.402;10.596;2023-12-20T06:33:15;96583.72;;;3.30;95.15
84445;BME280;74683;48.402;10.596;2023-12-20T06:35:42;96582.91;;;3.29;94.76
84445;BME280;74683;48.402;10.596;2023-12-20T06:38:08;96585.94;;;3.28;95.02
84445;BME280;74683;48.402;10.596;2023-12-20T06:40:36;96589.44;;;3.28;94.87
84445;BME280;74683;48.402;10.596;2023-12-20T06:43:02;96580.50;;;3.28;94.81
84445;BME280;74683;48.402;10.596;2023-12-20T06:45:41;96584.31;;;3.27;95.13
84445;BME280;74683;48.402;10.596;2023-12-20T06:48:08;96595.19;;;3.27;94.93
84445;BME280;74683;48.402;10.596;2023-12-20T06:50:37;96594.38;;;3.26;94.93
84445;BME280;74683;48.402;10.596;2023-12-20T06:53:06;96601.72;;;3.26;94.94
84445;BME280;74683;48.402;10.596;2023-12-20T06:55:36;96598.22;;;3.25;94.84
84445;BME280;74683;48.402;10.596;2023-12-20T06:58:04;96602.84;;;3.25;94.96
84445;BME280;74683;48.402;10.596;2023-12-20T07:00:32;96612.06;;;3.24;94.76
84445;BME280;74683;48.402;10.596;2023-12-20T07:02:58;96604.22;;;3.22;94.99
84445;BME280;74683;48.402;10.596;2023-12-20T07:05:25;96608.84;;;3.22;95.10
84445;BME280;74683;48.402;10.596;2023-12-20T07:07:53;96615.38;;;3.21;94.78
84445;BME280;74683;48.402;10.596;2023-12-20T07:10:20;96632.00;;;3.19;94.96
84445;BME280;74683;48.402;10.596;2023-12-20T07:12:47;96621.44;;;3.17;94.46
84445;BME280;74683;48.402;10.596;2023-12-20T07:15:15;96617.91;;;3.17;94.66
84445;BME280;74683;48.402;10.596;2023-12-20T07:17:42;96620.13;;;3.15;94.79
84445;BME280;74683;48.402;10.596;2023-12-20T07:20:10;96619.00;;;3.16;94.62
84445;BME280;74683;48.402;10.596;2023-12-20T07:22:37;96616.88;;;3.13;94.59
84445;BME280;74683;48.402;10.596;2023-12-20T07:25:04;96621.50;;;3.12;94.68
84445;BME280;74683;48.402;10.596;2023-12-20T07:27:31;96615.56;;;3.10;94.62
84445;BME280;74683;48.402;10.596;2023-12-20T07:29:58;96629.16;;;3.10;94.35
84445;BME280;74683;48.402;10.596;2023-12-20T07:32:25;96627.53;;;3.09;94.04
84445;BME280;74683;48.402;10.596;2023-12-20T07:34:51;96644.63;;;3.10;94.69
84445;BME280;74683;48.402;10.596;2023-12-20T07:37:18;96638.72;;;3.08;94.87
84445;BME280;74683;48.402;10.596;2023-12-20T07:39:45;96647.66;;;3.08;94.47
84445;BME280;74683;48.402;10.596;2023-12-20T07:42:12;96646.84;;;3.08;94.89
84445;BME280;74683;48.402;10.596;2023-12-20T07:44:38;96649.88;;;3.06;94.58
84445;BME280;74683;48.402;10.596;2023-12-20T07:47:05;96646.34;;;3.06;94.71
84445;BME280;74683;48.402;10.596;2023-12-20T07:49:35;96641.72;;;3.06;94.64
84445;BME280;74683;48.402;10.596;2023-12-20T07:52:02;96646.34;;;3.06;94.80
84445;BME280;74683;48.402;10.596;2023-12-20T07:54:32;96656.09;;;3.07;94.63
84445;BME280;74683;48.402;10.596;2023-12-20T07:56:58;96656.09;;;3.07;94.84
84445;BME280;74683;48.402;10.596;2023-12-20T07:59:26;96656.91;;;3.07;95.07
84445;BME280;74683;48.402;10.596;2023-12-20T08:01:58;96663.94;;;3.08;94.82
84445;BME280;74683;48.402;10.596;2023-12-20T08:04:28;96662.03;;;3.09;94.67
84445;BME280;74683;48.402;10.596;2023-12-20T08:06:55;96668.28;;;3.09;94.59
84445;BME280;74683;48.402;10.596;2023-12-20T08:09:22;96659.81;;;3.11;94.64
84445;BME280;74683;48.402;10.596;2023-12-20T08:11:51;96668.28;;;3.09;94.65
84445;BME280;74683;48.402;10.596;2023-12-20T08:14:27;96669.88;;;3.10;94.53
84445;BME280;74683;48.402;10.596;2023-12-20T08:16:54;96678.84;;;3.11;94.58
84445;BME280;74683;48.402;10.596;2023-12-20T08:19:23;96682.88;;;3.13;94.50
84445;BME280;74683;48.402;10.596;2023-12-20T08:21:49;96682.88;;;3.13;94.69
84445;BME280;74683;48.402;10.596;2023-12-20T08:24:16;96686.13;;;3.15;94.95
84445;BME280;74683;48.402;10.596;2023-12-20T08:26:42;96692.84;;;3.18;94.89
84445;BME280;74683;48.402;10.596;2023-12-20T08:29:09;96692.25;;;3.21;94.97
84445;BME280;74683;48.402;10.596;2023-12-20T08:31:36;96683.50;;;3.24;94.78
84445;BME280;74683;48.402;10.596;2023-12-20T08:34:02;96681.81;;;3.28;95.00
84445;BME280;74683;48.402;10.596;2023-12-20T08:36:31;96680.91;;;3.33;94.66
84445;BME280;74683;48.402;10.596;2023-12-20T08:38:58;96681.16;;;3.36;94.60
84445;BME280;74683;48.402;10.596;2023-12-20T08:41:27;96682.16;;;3.40;94.56
84445;BME280;74683;48.402;10.596;2023-12-20T08:43:53;96684.00;;;3.45;94.28
84445;BME280;74683;48.402;10.596;2023-12-20T08:46:20;96677.44;;;3.46;94.66
84445;BME280;74683;48.402;10.596;2023-12-20T08:48:47;96683.69;;;3.47;94.54
84445;BME280;74683;48.402;10.596;2023-12-20T08:51:14;96683.38;;;3.48;94.56
84445;BME280;74683;48.402;10.596;2023-12-20T08:53:40;96681.97;;;3.51;94.21
84445;BME280;74683;48.402;10.596;2023-12-20T08:56:08;96680.28;;;3.55;94.29
84445;BME280;74683;48.402;10.596;2023-12-20T08:58:34;96675.03;;;3.58;94.35
84445;BME280;74683;48.402;10.596;2023-12-20T09:01:02;96677.97;;;3.62;93.85
84445;BME280;74683;48.402;10.596;2023-12-20T09:03:29;96677.66;;;3.63;94.00
84445;BME280;74683;48.402;10.596;2023-12-20T09:05:56;96684.63;;;3.69;94.22
84445;BME280;74683;48.402;10.596;2023-12-20T09:08:23;96680.19;;;3.73;94.04
84445;BME280;74683;48.402;10.596;2023-12-20T09:10:49;96674.47;;;3.75;94.26
84445;BME280;74683;48.402;10.596;2023-12-20T09:13:16;96661.16;;;3.73;93.63
84445;BME280;74683;48.402;10.596;2023-12-20T09:15:43;96658.97;;;3.76;94.04
84445;BME280;74683;48.402;10.596;2023-12-20T09:18:10;96647.78;;;3.77;93.98
84445;BME280;74683;48.402;10.596;2023-12-20T09:20:37;96655.81;;;3.82;94.21
84445;BME280;74683;48.402;10.596;2023-12-20T09:23:08;96662.78;;;3.88;94.37
84445;BME280;74683;48.402;10.596;2023-12-20T09:25:35;96668.94;;;3.94;94.01
84445;BME280;74683;48.402;10.596;2023-12-20T09:28:01;96672.97;;;3.96;94.07
84445;BME280;74683;48.402;10.596;2023-12-20T09:30:28;96677.28;;;3.97;93.35
84445;BME280;74683;48.402;10.596;2023-12-20T09:32:55;96668.53;;;4.00;93.42
84445;BME280;74683;48.402;10.596;2023-12-20T09:35:22;96670.44;;;4.00;93.63
84445;BME280;74683;48.402;10.596;2023-12-20T09:37:50;96672.75;;;4.07;93.77
84445;BME280;74683;48.402;10.596;2023-12-20T09:40:20;96665.91;;;4.09;93.21
84445;BME280;74683;48.402;10.596;2023-12-20T09:42:51;96672.88;;;4.15;93.31
84445;BME280;74683;48.402;10.596;2023-12-20T09:45:23;96676.28;;;4.21;92.64
84445;BME280;74683;48.402;10.596;2023-12-20T09:47:50;96670.25;;;4.24;92.79
84445;BME280;74683;48.402;10.596;2023-12-20T09:50:20;96672.97;;;4.24;93.23
84445;BME280;74683;48.402;10.596;2023-12-20T09:52:52;96668.91;;;4.21;92.97
84445;BME280;74683;48.402;10.596;2023-12-20T09:55:20;96672.97;;;4.24;92.45
84445;BME280;74683;48.402;10.596;2023-12-20T09:57:47;96664.97;;;4.27;92.48
84445;BME280;74683;48.402;10.596;2023-12-20T10:00:15;96666.19;;;4.35;93.09
84445;BME280;74683;48.402;10.596;2023-12-20T10:02:57;96653.78;;;4.43;92.22
84445;BME280;74683;48.402;10.596;2023-12-20T10:05:28;96651.13;;;4.51;92.61
84445;BME280;74683;48.402;10.596;2023-12-20T10:07:56;96652.25;;;4.50;92.38
84445;BME280;74683;48.402;10.596;2023-12-20T10:10:23;96649.81;;;4.49;91.77
84445;BME280;74683;48.402;10.596;2023-12-20T10:13:05;96646.69;;;4.55;91.64
84445;BME280;74683;48.402;10.596;2023-12-20T10:15:36;96644.28;;;4.54;91.42
84445;BME280;74683;48.402;10.596;2023-12-20T10:18:04;96641.56;;;4.54;91.63
84445;BME280;74683;48.402;10.596;2023-12-20T10:20:32;96639.25;;;4.47;91.48
84445;BME280;74683;48.402;10.596;2023-12-20T10:22:59;96638.44;;;4.47;91.51
84445;BME280;74683;48.402;10.596;2023-12-20T10:25:28;96637.41;;;4.56;91.45
84445;BME280;74683;48.402;10.596;2023-12-20T10:28:11;96636.59;;;4.56;91.21
84445;BME280;74683;48.402;10.596;2023-12-20T10:30:39;96634.38;;;4.58;91.53
84445;BME280;74683;48.402;10.596;2023-12-20T10:33:07;96636.19;;;4.63;91.16
84445;BME280;74683;48.402;10.596;2023-12-20T10:35:39;96640.22;;;4.65;91.56
84445;BME280;74683;48.402;10.596;2023-12-20T10:38:11;96640.84;;;4.48;91.07
84445;BME280;74683;48.402;10.596;2023-12-20T10:40:41;96649.06;;;4.21;90.94
84445;BME280;74683;48.402;10.596;2023-12-20T10:43:09;96647.47;;;3.92;90.20
84445;BME280;74683;48.402;10.596;2023-12-20T10:45:36;96643.53;;;3.71;90.65
84445;BME280;74683;48.402;10.596;2023-12-20T10:48:04;96648.66;;;3.59;91.16
84445;BME280;74683;48.402;10.596;2023-12-20T10:50:31;96651.47;;;3.54;91.77
84445;BME280;74683;48.402;10.596;2023-12-20T10:52:58;96649.66;;;3.49;91.89
84445;BME280;74683;48.402;10.596;2023-12-20T10:55:25;96647.56;;;3.46;91.85
84445;BME280;74683;48.402;10.596;2023-12-20T10:58:23;96652.19;;;3.45;92.18
84445;BME280;74683;48.402;10.596;2023-12-20T11:00:56;96645.63;;;3.47;92.74
84445;BME280;74683;48.402;10.596;2023-12-20T11:03:26;96642.63;;;3.48;91.98
84445;BME280;74683;48.402;10.596;2023-12-20T11:06:03;96653.38;;;3.53;92.07
84445;BME280;74683;48.402;10.596;2023-12-20T11:08:55;96652.00;;;3.56;92.27
84445;BME280;74683;48.402;10.596;2023-12-20T11:11:34;96642.44;;;3.58;91.38
84445;BME280;74683;48.402;10.596;2023-12-20T11:14:05;96638.91;;;3.58;91.42
84445;BME280;74683;48.402;10.596;2023-12-20T11:16:38;96640.44;;;3.64;91.78
84445;BME280;74683;48.402;10.596;2023-12-20T11:19:17;96639.13;;;3.75;91.91
84445;BME280;74683;48.402;10.596;2023-12-20T11:21:46;96635.50;;;3.80;92.10
84445;BME280;74683;48.402;10.596;2023-12-20T11:24:13;96628.63;;;3.82;91.55
84445;BME280;74683;48.402;10.596;2023-12-20T11:26:46;96642.53;;;3.81;91.41
84445;BME280;74683;48.402;10.596;2023-12-20T11:29:33;96644.34;;;3.71;91.31
84445;BME280;74683;48.402;10.596;2023-12-20T11:32:02;96642.34;;;3.77;91.20
84445;BME280;74683;48.402;10.596;2023-12-20T11:34:32;96637.00;;;3.86;90.80
84445;BME280;74683;48.402;10.596;2023-12-20T11:37:01;96629.75;;;3.95;91.58
84445;BME280;74683;48.402;10.596;2023-12-20T11:39:30;96637.00;;;3.99;90.91
84445;BME280;74683;48.402;10.596;2023-12-20T11:42:04;96637.41;;;4.07;90.49
84445;BME280;74683;48.402;10.596;2023-12-20T11:44:30;96643.53;;;3.98;89.65
84445;BME280;74683;48.402;10.596;2023-12-20T11:46:57;96636.19;;;3.99;89.38
84445;BME280;74683;48.402;10.596;2023-12-20T11:49:24;96629.63;;;4.00;88.74
84445;BME280;74683;48.402;10.596;2023-12-20T11:51:52;96630.94;;;4.02;89.25
84445;BME280;74683;48.402;10.596;2023-12-20T11:54:18;96635.06;;;4.00;88.97
84445;BME280;74683;48.402;10.596;2023-12-20T11:56:46;96624.81;;;3.97;88.86
84445;BME280;74683;48.402;10.596;2023-12-20T11:59:12;96632.56;;;3.90;88.38
84445;BME280;74683;48.402;10.596;2023-12-20T12:01:50;96629.75;;;3.81;88.41
84445;BME280;74683;48.402;10.596;2023-12-20T12:04:17;96637.09;;;3.81;88.58
84445;BME280;74683;48.402;10.596;2023-12-20T12:06:44;96631.56;;;3.86;88.12
84445;BME280;74683;48.402;10.596;2023-12-20T12:09:11;96629.03;;;4.03;88.42
84445;BME280;74683;48.402;10.596;2023-12-20T12:11:38;96624.59;;;4.07;88.39
84445;BME280;74683;48.402;10.596;2023-12-20T12:14:06;96619.25;;;4.16;88.31
84445;BME280;74683;48.402;10.596;2023-12-20T12:16:33;96615.53;;;4.12;87.97
84445;BME280;74683;48.402;10.596;2023-12-20T12:19:00;96614.31;;;4.18;87.16
84445;BME280;74683;48.402;10.596;2023-12-20T12:21:27;96618.00;;;4.22;87.02
84445;BME280;74683;48.402;10.596;2023-12-20T12:24:09;96621.94;;;4.29;85.77
84445;BME280;74683;48.402;10.596;2023-12-20T12:26:36;96621.06;;;4.20;86.08
84445;BME280;74683;48.402;10.596;2023-12-20T12:29:03;96612.88;;;4.20;85.82
84445;BME280;74683;48.402;10.596;2023-12-20T12:31:30;96622.06;;;4.11;85.86
84445;BME280;74683;48.402;10.596;2023-12-20T12:33:57;96613.81;;;4.02;85.74
84445;BME280;74683;48.402;10.596;2023-12-20T12:36:23;96608.91;;;3.90;85.34
84445;BME280;74683;48.402;10.596;2023-12-20T12:38:50;96612.09;;;3.92;85.75
84445;BME280;74683;48.402;10.596;2023-12-20T12:41:17;96604.28;;;3.77;85.47
84445;BME280;74683;48.402;10.596;2023-12-20T12:43:44;96610.81;;;3.76;85.52
84445;BME280;74683;48.402;10.596;2023-12-20T12:46:10;96615.06;;;3.68;84.93
84445;BME280;74683;48.402;10.596;2023-12-20T12:48:38;96612.72;;;3.62;86.07
84445;BME280;74683;48.402;10.596;2023-12-20T12:51:06;96617.34;;;3.61;85.48
84445;BME280;74683;48.402;10.596;2023-12-20T12:53:39;96613.03;;;3.60;85.24
84445;BME280;74683;48.402;10.596;2023-12-20T12:56:06;96614.31;;;3.63;85.27
84445;BME280;74683;48.402;10.596;2023-12-20T12:58:33;96615.97;;;3.64;86.12
84445;BME280;74683;48.402;10.596;2023-12-20T13:01:00;96609.91;;;3.67;85.38
84445;BME280;74683;48.402;10.596;2023-12-20T13:03:27;96608.31;;;3.66;85.51